Time;durP1;ratioP1;P1;durP2;ratioP2;P2;SDS_P1;SDS_P2;PMS_P1;PMS_P2;Temp;Humidity;BMP_temperature;BMP_pressure;BME280_temperature;BME280_humidity;BME280_pressure;Samples;Min_cycle;Max_cycle;Signal;HPM_P1;HPM_P2
2021/09/09 00:00:22;;;;;;;5.30;4.90;;;22.50;99.90;;;;;;5002227;28;20531;-75
2021/09/09 00:02:51;;;;;;;5.90;5.40;;;22.40;99.90;;;;;;5002171;28;20535;-76
2021/09/09 00:05:19;;;;;;;5.90;5.40;;;22.40;99.90;;;;;;5004745;28;20630;-75
2021/09/09 00:07:48;;;;;;;5.63;5.03;;;22.40;99.90;;;;;;5009582;28;20453;-74
2021/09/09 00:10:16;;;;;;;5.77;5.17;;;22.30;99.90;;;;;;5006058;28;21058;-75
2021/09/09 00:12:45;;;;;;;5.00;4.43;;;22.30;99.90;;;;;;5009560;28;20543;-75
2021/09/09 00:15:13;;;;;;;7.57;4.70;;;22.20;99.90;;;;;;5005867;28;20464;-75
2021/09/09 00:17:41;;;;;;;6.03;5.10;;;22.30;99.90;;;;;;5008938;28;20463;-74
2021/09/09 00:20:12;;;;;;;5.83;5.27;;;22.30;99.90;;;;;;5007995;28;20454;-73
2021/09/09 00:22:41;;;;;;;5.60;4.90;;;22.30;99.90;;;;;;5007684;28;20493;-79
2021/09/09 00:25:10;;;;;;;6.30;5.70;;;22.30;99.90;;;;;;5007505;28;20491;-77
2021/09/09 00:27:38;;;;;;;5.67;5.20;;;22.30;99.90;;;;;;5006152;28;20515;-75
2021/09/09 00:30:07;;;;;;;5.50;4.87;;;22.20;99.90;;;;;;5005689;28;20468;-75
2021/09/09 00:32:36;;;;;;;6.30;5.13;;;22.30;99.90;;;;;;5003413;28;20587;-76
2021/09/09 00:35:05;;;;;;;5.27;4.77;;;22.30;99.90;;;;;;5006176;28;20450;-77
2021/09/09 00:37:34;;;;;;;6.83;6.07;;;22.30;99.90;;;;;;5007891;28;20894;-77
2021/09/09 00:40:03;;;;;;;5.40;4.90;;;22.50;99.90;;;;;;5005875;28;20580;-77
2021/09/09 00:42:31;;;;;;;6.37;5.77;;;22.50;99.90;;;;;;4995590;28;20484;-77
2021/09/09 00:45:00;;;;;;;5.13;4.70;;;22.50;99.90;;;;;;5006261;28;20453;-74
2021/09/09 00:47:28;;;;;;;5.73;5.23;;;22.60;99.90;;;;;;5003945;28;20456;-77
2021/09/09 00:49:56;;;;;;;5.70;5.20;;;22.60;99.90;;;;;;5006056;28;20488;-77
2021/09/09 00:52:24;;;;;;;5.73;5.33;;;22.60;99.90;;;;;;5007306;28;20505;-76
2021/09/09 00:54:54;;;;;;;5.70;5.20;;;22.50;99.90;;;;;;5010038;28;20926;-76
2021/09/09 00:57:22;;;;;;;5.73;5.13;;;22.40;99.90;;;;;;5006891;28;20442;-76
2021/09/09 00:59:53;;;;;;;6.00;5.50;;;22.40;99.90;;;;;;5005775;28;20867;-76
2021/09/09 01:02:21;;;;;;;5.70;5.20;;;22.50;99.90;;;;;;5003584;28;20513;-77
2021/09/09 01:04:50;;;;;;;6.60;5.60;;;22.60;99.90;;;;;;5004038;28;20895;-78
2021/09/09 01:07:18;;;;;;;6.43;5.80;;;22.50;99.90;;;;;;5007020;28;20548;-78
2021/09/09 01:09:46;;;;;;;7.00;5.30;;;22.60;99.90;;;;;;5006789;28;20879;-77
2021/09/09 01:12:16;;;;;;;6.20;5.60;;;22.50;99.90;;;;;;5005573;28;20501;-76
2021/09/09 01:14:44;;;;;;;6.30;5.70;;;22.50;99.90;;;;;;5007293;28;20485;-77
2021/09/09 01:17:12;;;;;;;6.83;5.30;;;22.50;99.90;;;;;;5006722;28;20520;-77
2021/09/09 01:19:40;;;;;;;7.43;5.67;;;22.40;99.90;;;;;;5001628;28;20461;-78
2021/09/09 01:22:08;;;;;;;5.77;5.17;;;22.40;99.90;;;;;;5006163;28;20555;-76
2021/09/09 01:24:41;;;;;;;6.87;6.17;;;22.40;99.90;;;;;;5006552;28;20520;-76
2021/09/09 01:27:09;;;;;;;6.17;5.57;;;22.40;99.90;;;;;;5001753;28;20472;-76
2021/09/09 01:29:40;;;;;;;5.80;5.20;;;22.30;99.90;;;;;;5004753;28;20450;-75
2021/09/09 01:32:09;;;;;;;5.10;4.70;;;22.30;99.90;;;;;;5003826;28;20489;-75
2021/09/09 01:34:38;;;;;;;5.80;5.03;;;22.30;99.90;;;;;;5004209;28;20445;-76
2021/09/09 01:37:06;;;;;;;6.07;5.50;;;22.30;99.90;;;;;;5006165;28;20455;-78
2021/09/09 01:39:34;;;;;;;5.70;4.67;;;22.30;99.90;;;;;;5006962;28;20476;-75
2021/09/09 01:42:04;;;;;;;5.80;5.30;;;22.20;99.90;;;;;;5006940;28;20514;-75
2021/09/09 01:44:32;;;;;;;5.40;4.90;;;22.20;99.90;;;;;;5006462;28;20508;-78
2021/09/09 01:47:00;;;;;;;6.00;5.47;;;22.10;99.90;;;;;;5004790;28;20894;-75
2021/09/09 01:49:29;;;;;;;6.10;5.50;;;22.10;99.90;;;;;;5007340;28;21023;-76
2021/09/09 01:51:57;;;;;;;5.87;5.37;;;22.10;99.90;;;;;;5000771;28;20512;-77
2021/09/09 01:54:26;;;;;;;5.77;5.20;;;22.00;99.90;;;;;;5002077;28;20505;-76
2021/09/09 01:56:54;;;;;;;5.00;4.60;;;22.00;99.90;;;;;;5006150;28;20465;-75
2021/09/09 01:59:23;;;;;;;5.50;5.10;;;22.00;99.90;;;;;;5004828;28;20465;-76
2021/09/09 02:01:51;;;;;;;5.77;5.27;;;22.00;99.90;;;;;;5005114;28;20546;-76
2021/09/09 02:04:20;;;;;;;5.47;4.97;;;21.90;99.90;;;;;;5006079;28;20453;-77
2021/09/09 02:06:48;;;;;;;6.23;5.37;;;21.90;99.90;;;;;;4995664;28;20509;-73
2021/09/09 02:09:16;;;;;;;6.60;5.93;;;21.90;99.90;;;;;;5002078;28;20469;-76
2021/09/09 02:11:44;;;;;;;6.27;5.67;;;21.90;99.90;;;;;;5004666;28;20488;-75
2021/09/09 02:14:12;;;;;;;6.07;5.20;;;21.90;99.90;;;;;;5006474;28;20473;-76
2021/09/09 02:16:42;;;;;;;5.30;4.90;;;21.80;99.90;;;;;;5005861;28;20866;-77
2021/09/09 02:19:10;;;;;;;5.70;5.20;;;21.90;99.90;;;;;;5005088;28;20472;-77
2021/09/09 02:21:38;;;;;;;6.17;5.67;;;21.80;99.90;;;;;;5004384;28;20489;-77
2021/09/09 02:24:08;;;;;;;7.37;5.47;;;21.80;99.90;;;;;;5003815;28;20485;-76
2021/09/09 02:26:36;;;;;;;5.57;5.07;;;21.80;99.90;;;;;;5004098;28;21042;-74
2021/09/09 02:29:04;;;;;;;5.97;5.47;;;21.80;99.90;;;;;;5004467;28;21006;-77
2021/09/09 02:31:32;;;;;;;5.77;5.27;;;21.90;99.90;;;;;;5005165;28;21102;-76
2021/09/09 02:34:01;;;;;;;6.73;6.13;;;21.90;99.90;;;;;;5006379;28;20527;-77
2021/09/09 02:36:30;;;;;;;6.30;5.70;;;21.90;99.90;;;;;;5006304;28;20551;-76
2021/09/09 02:38:58;;;;;;;7.70;5.60;;;21.90;99.90;;;;;;5004718;28;20478;-78
2021/09/09 02:41:27;;;;;;;7.00;5.60;;;21.80;99.90;;;;;;5002434;28;20508;-76
2021/09/09 02:43:55;;;;;;;5.20;4.73;;;21.90;99.90;;;;;;5005245;28;20543;-77
2021/09/09 02:46:23;;;;;;;5.80;5.30;;;21.80;99.90;;;;;;5006243;28;20492;-77
2021/09/09 02:48:51;;;;;;;5.87;5.37;;;21.90;99.90;;;;;;5006136;28;20467;-76
2021/09/09 02:51:21;;;;;;;9.73;8.23;;;21.80;99.90;;;;;;5004999;28;20508;-76
2021/09/09 02:53:49;;;;;;;8.50;6.30;;;21.80;99.90;;;;;;5010095;28;20492;-76
2021/09/09 02:56:17;;;;;;;6.47;5.53;;;21.80;99.90;;;;;;5009806;28;20465;-78
2021/09/09 02:58:45;;;;;;;5.90;5.30;;;21.80;99.90;;;;;;5010635;28;20503;-77
2021/09/09 03:01:13;;;;;;;6.00;5.50;;;21.70;99.90;;;;;;5006943;28;20455;-76
2021/09/09 03:03:42;;;;;;;5.90;5.50;;;21.70;99.90;;;;;;5008405;28;20453;-76
2021/09/09 03:06:10;;;;;;;5.40;4.90;;;21.80;99.90;;;;;;5008893;28;20461;-76
2021/09/09 03:08:40;;;;;;;6.07;5.57;;;21.80;99.90;;;;;;5010940;28;20480;-75
2021/09/09 03:11:08;;;;;;;6.57;5.70;;;21.90;99.90;;;;;;5008135;28;21897;-77
2021/09/09 03:13:37;;;;;;;5.60;5.20;;;21.80;99.90;;;;;;4996535;28;20474;-76
2021/09/09 03:16:05;;;;;;;6.17;5.60;;;21.80;99.90;;;;;;5007880;28;21087;-74
2021/09/09 03:18:33;;;;;;;7.07;6.37;;;21.90;99.90;;;;;;5002989;28;20446;-76
2021/09/09 03:21:02;;;;;;;6.20;5.53;;;22.00;99.90;;;;;;5007448;28;20463;-76
2021/09/09 03:23:30;;;;;;;7.63;5.40;;;21.90;99.90;;;;;;4992633;28;20462;-75
2021/09/09 03:25:59;;;;;;;6.27;5.67;;;21.80;99.90;;;;;;5008200;28;20930;-75
2021/09/09 03:28:28;;;;;;;6.30;5.03;;;21.80;99.90;;;;;;5005589;28;20551;-75
2021/09/09 03:30:56;;;;;;;6.30;5.50;;;22.00;99.90;;;;;;5005462;28;20601;-76
2021/09/09 03:33:24;;;;;;;5.80;5.30;;;22.00;99.90;;;;;;5010300;28;20446;-77
2021/09/09 03:35:53;;;;;;;7.50;5.70;;;22.10;99.90;;;;;;5008290;28;20461;-77
2021/09/09 03:38:21;;;;;;;6.10;5.60;;;22.10;99.90;;;;;;5010524;28;20500;-77
2021/09/09 03:40:49;;;;;;;6.10;5.27;;;22.10;99.90;;;;;;5006245;28;20512;-75
2021/09/09 03:43:18;;;;;;;5.37;4.90;;;22.20;99.90;;;;;;5008123;28;20485;-77
2021/09/09 03:45:47;;;;;;;5.80;5.30;;;22.10;99.90;;;;;;5009535;28;20459;-76
2021/09/09 03:48:15;;;;;;;6.20;5.60;;;22.10;99.90;;;;;;5008443;28;20456;-75
2021/09/09 03:50:43;;;;;;;6.37;5.77;;;22.20;99.90;;;;;;5006191;28;20534;-78
2021/09/09 03:53:11;;;;;;;7.20;6.50;;;22.20;99.90;;;;;;5007742;28;20821;-77
2021/09/09 03:55:39;;;;;;;5.87;5.27;;;22.20;99.90;;;;;;4991325;28;20847;-78
2021/09/09 03:58:07;;;;;;;6.23;5.43;;;22.20;99.90;;;;;;5005824;28;20457;-77
2021/09/09 04:00:37;;;;;;;5.90;5.20;;;22.10;99.90;;;;;;5006798;28;20465;-77
2021/09/09 04:03:05;;;;;;;5.90;5.30;;;22.20;99.90;;;;;;5009014;28;20476;-76
2021/09/09 04:05:33;;;;;;;11.47;5.97;;;22.20;99.90;;;;;;5008275;28;20456;-76
2021/09/09 04:08:01;;;;;;;8.00;6.17;;;22.20;99.90;;;;;;5008628;28;20503;-78
2021/09/09 04:10:30;;;;;;;7.27;6.57;;;22.20;99.90;;;;;;5009426;28;20506;-78
2021/09/09 04:12:58;;;;;;;6.07;5.57;;;22.20;99.90;;;;;;5005182;28;20552;-76
2021/09/09 04:15:26;;;;;;;5.93;5.37;;;22.10;99.90;;;;;;5003887;28;21078;-76
2021/09/09 04:17:55;;;;;;;5.83;5.10;;;22.00;99.90;;;;;;5004901;28;20461;-75
2021/09/09 04:20:23;;;;;;;5.90;5.30;;;22.00;99.90;;;;;;5007540;28;20662;-76
2021/09/09 04:22:52;;;;;;;6.27;5.77;;;22.00;99.90;;;;;;4994731;28;20488;-76
2021/09/09 04:25:20;;;;;;;5.20;4.80;;;22.00;99.90;;;;;;5004959;28;20473;-76
2021/09/09 04:27:48;;;;;;;5.60;5.10;;;22.00;99.90;;;;;;5004746;28;20505;-75
2021/09/09 04:30:16;;;;;;;5.97;5.30;;;22.00;99.90;;;;;;5006770;28;20480;-77
2021/09/09 04:32:44;;;;;;;5.10;4.70;;;21.90;99.90;;;;;;5005604;28;20587;-77
2021/09/09 04:35:14;;;;;;;6.10;5.60;;;22.00;99.90;;;;;;5000738;28;20485;-77
2021/09/09 04:37:42;;;;;;;6.50;5.70;;;22.00;99.90;;;;;;5008753;28;20446;-73
2021/09/09 04:40:11;;;;;;;5.67;5.03;;;21.90;99.90;;;;;;5006673;28;20931;-75
2021/09/09 04:42:39;;;;;;;8.93;7.43;;;21.80;99.90;;;;;;5006285;28;20988;-75
2021/09/09 04:45:08;;;;;;;5.60;5.20;;;21.70;99.90;;;;;;5006842;28;20446;-75
2021/09/09 04:47:37;;;;;;;6.07;5.50;;;21.50;99.90;;;;;;5008863;28;20468;-77
2021/09/09 04:50:06;;;;;;;6.37;5.77;;;21.50;99.90;;;;;;5006231;28;20496;-76
2021/09/09 04:52:36;;;;;;;9.13;5.80;;;21.50;99.90;;;;;;5006346;28;20476;-76
2021/09/09 04:55:05;;;;;;;6.07;5.47;;;21.40;99.90;;;;;;5007811;28;20475;-75
2021/09/09 04:57:33;;;;;;;5.50;5.03;;;21.40;99.90;;;;;;5006694;28;20466;-77
2021/09/09 05:00:01;;;;;;;5.20;4.80;;;21.50;99.90;;;;;;5006159;28;20452;-79
2021/09/09 05:02:29;;;;;;;5.90;5.40;;;21.50;99.90;;;;;;5005810;28;20505;-79
2021/09/09 05:04:58;;;;;;;6.67;5.97;;;21.50;99.90;;;;;;5007299;28;20483;-77
2021/09/09 05:07:26;;;;;;;6.60;6.00;;;21.70;99.90;;;;;;5005620;28;20454;-77
2021/09/09 05:09:55;;;;;;;6.77;5.90;;;21.80;99.90;;;;;;5006670;28;20461;-79
2021/09/09 05:12:23;;;;;;;8.13;5.70;;;21.80;99.90;;;;;;5003331;28;20487;-79
2021/09/09 05:14:52;;;;;;;6.30;5.63;;;21.80;99.90;;;;;;4996559;28;20480;-78
2021/09/09 05:17:20;;;;;;;6.27;5.50;;;21.70;99.90;;;;;;5007562;28;21044;-78
2021/09/09 05:19:48;;;;;;;5.87;5.27;;;21.70;99.90;;;;;;5005980;28;20460;-78
2021/09/09 05:22:16;;;;;;;6.90;6.30;;;21.70;99.90;;;;;;5005639;28;20476;-77
2021/09/09 05:24:44;;;;;;;5.83;5.33;;;21.70;99.90;;;;;;5006748;28;20465;-76
2021/09/09 05:27:14;;;;;;;7.10;5.90;;;21.70;99.90;;;;;;5004056;28;20465;-77
2021/09/09 05:29:42;;;;;;;5.63;5.13;;;21.80;99.90;;;;;;5002813;28;20452;-78
2021/09/09 05:32:10;;;;;;;6.13;5.53;;;21.70;99.90;;;;;;5008204;28;20473;-79
2021/09/09 05:34:39;;;;;;;7.23;5.30;;;21.70;99.90;;;;;;5004729;28;21035;-78
2021/09/09 05:37:07;;;;;;;7.50;5.70;;;21.50;99.90;;;;;;5007818;28;20441;-79
2021/09/09 05:39:35;;;;;;;6.23;5.63;;;21.40;99.90;;;;;;5001741;28;20459;-74
2021/09/09 05:42:03;;;;;;;5.13;4.70;;;21.50;99.90;;;;;;5004107;28;20476;-80
2021/09/09 05:44:33;;;;;;;6.20;5.33;;;21.70;99.90;;;;;;4996089;28;20449;-79
2021/09/09 05:47:01;;;;;;;11.13;5.07;;;21.70;99.90;;;;;;5005899;28;20441;-78
2021/09/09 05:49:29;;;;;;;5.50;5.00;;;21.80;99.90;;;;;;5005516;28;20457;-80
2021/09/09 05:51:57;;;;;;;5.50;5.00;;;21.90;99.90;;;;;;5000254;28;20474;-79
2021/09/09 05:54:26;;;;;;;5.67;5.17;;;21.90;99.90;;;;;;5003707;28;20996;-79
2021/09/09 05:56:54;;;;;;;4.67;4.20;;;21.90;99.90;;;;;;5003764;28;20480;-78
2021/09/09 05:59:22;;;;;;;6.03;5.43;;;21.90;99.90;;;;;;5003275;28;20457;-79
2021/09/09 06:01:52;;;;;;;5.10;4.70;;;21.90;99.90;;;;;;5003865;28;20872;-79
2021/09/09 06:04:22;;;;;;;6.40;5.80;;;22.00;99.90;;;;;;5001731;28;20519;-80
2021/09/09 06:06:50;;;;;;;6.23;5.30;;;22.10;99.90;;;;;;5002681;28;20465;-78
2021/09/09 06:09:18;;;;;;;5.97;5.47;;;22.20;99.90;;;;;;5000186;28;20457;-78
2021/09/09 06:11:46;;;;;;;5.57;5.13;;;22.20;99.90;;;;;;5002628;28;20516;-78
2021/09/09 06:14:15;;;;;;;5.77;5.27;;;22.30;99.90;;;;;;5003273;28;20465;-78
2021/09/09 06:16:43;;;;;;;6.57;5.50;;;22.40;99.90;;;;;;5000588;28;20826;-79
2021/09/09 06:19:13;;;;;;;7.40;5.87;;;22.40;99.90;;;;;;4994634;28;20453;-79
2021/09/09 06:21:41;;;;;;;7.07;6.43;;;22.50;99.90;;;;;;5005564;28;20481;-78
2021/09/09 06:24:10;;;;;;;5.37;4.87;;;22.50;99.90;;;;;;5003534;28;20472;-79
2021/09/09 06:26:38;;;;;;;5.93;5.07;;;22.50;99.90;;;;;;5003925;28;20513;-77
2021/09/09 06:29:06;;;;;;;6.57;5.67;;;22.50;99.90;;;;;;5004524;28;20449;-74
2021/09/09 06:31:34;;;;;;;5.80;5.20;;;22.50;99.90;;;;;;5006358;28;20461;-78
2021/09/09 06:34:03;;;;;;;6.13;5.60;;;22.60;99.90;;;;;;5007275;28;20449;-78
2021/09/09 06:36:32;;;;;;;7.83;6.50;;;22.60;99.90;;;;;;5006620;28;20480;-78
2021/09/09 06:39:01;;;;;;;5.47;4.97;;;22.60;99.90;;;;;;5009883;28;20453;-79
2021/09/09 06:41:29;;;;;;;7.30;5.80;;;22.70;99.90;;;;;;5005837;28;21042;-79
2021/09/09 06:43:58;;;;;;;6.47;5.97;;;22.70;99.90;;;;;;5009565;28;20542;-78
2021/09/09 06:46:26;;;;;;;8.13;5.70;;;22.70;99.90;;;;;;5010073;28;20499;-78
2021/09/09 06:48:54;;;;;;;7.10;5.93;;;22.80;99.90;;;;;;5009373;28;20644;-75
2021/09/09 06:51:23;;;;;;;6.23;5.53;;;22.80;99.90;;;;;;5008920;28;20957;-78
2021/09/09 06:53:53;;;;;;;5.90;5.30;;;22.80;99.90;;;;;;5010225;28;20812;-78
2021/09/09 06:56:21;;;;;;;6.70;6.00;;;22.80;99.90;;;;;;5009093;28;20469;-77
2021/09/09 06:58:49;;;;;;;6.40;5.13;;;22.80;99.90;;;;;;5004707;28;20484;-75
2021/09/09 07:01:17;;;;;;;6.10;5.50;;;22.90;99.90;;;;;;5001963;28;20206;-77
2021/09/09 07:03:46;;;;;;;6.70;6.10;;;22.90;99.90;;;;;;5007668;28;20460;-78
2021/09/09 07:06:15;;;;;;;6.23;5.63;;;23.00;99.90;;;;;;5009258;28;20499;-78
2021/09/09 07:08:43;;;;;;;5.23;4.73;;;23.00;99.90;;;;;;5005632;28;20949;-79
2021/09/09 07:11:13;;;;;;;6.57;5.97;;;23.00;99.90;;;;;;5005566;28;20803;-78
2021/09/09 07:13:41;;;;;;;6.20;5.80;;;23.00;99.90;;;;;;5004825;28;20457;-78
2021/09/09 07:16:09;;;;;;;6.90;6.17;;;23.10;99.90;;;;;;5010101;28;20523;-79
2021/09/09 07:18:38;;;;;;;5.53;5.03;;;23.10;99.90;;;;;;5011146;28;20507;-78
2021/09/09 07:21:07;;;;;;;5.43;4.93;;;23.10;99.90;;;;;;5009479;28;20949;-76
2021/09/09 07:23:35;;;;;;;6.03;5.53;;;23.20;99.90;;;;;;5008709;28;20801;-79
2021/09/09 07:26:04;;;;;;;6.73;5.27;;;23.10;99.90;;;;;;5010238;28;20880;-78
2021/09/09 07:28:33;;;;;;;6.63;6.03;;;23.10;99.90;;;;;;5010729;28;20511;-79
2021/09/09 07:31:01;;;;;;;6.37;5.80;;;23.10;99.90;;;;;;5009423;28;20438;-78
2021/09/09 07:33:29;;;;;;;11.13;5.83;;;23.20;99.90;;;;;;5010941;28;20471;-79
2021/09/09 07:35:58;;;;;;;5.97;5.37;;;23.30;99.90;;;;;;5009951;28;20839;-78
2021/09/09 07:38:26;;;;;;;6.40;5.70;;;23.40;99.90;;;;;;5011049;28;20449;-79
2021/09/09 07:40:54;;;;;;;6.27;5.50;;;23.40;99.90;;;;;;5008839;28;20589;-78
2021/09/09 07:43:22;;;;;;;6.47;5.00;;;23.50;99.90;;;;;;5011151;28;20528;-79
2021/09/09 07:45:51;;;;;;;6.00;5.50;;;23.50;99.90;;;;;;5009452;28;20770;-79
2021/09/09 07:48:19;;;;;;;5.80;5.20;;;23.50;99.90;;;;;;5011322;28;20453;-78
2021/09/09 07:50:47;;;;;;;5.87;5.17;;;23.60;99.90;;;;;;5006870;28;20481;-78
2021/09/09 07:53:15;;;;;;;6.00;5.40;;;23.60;99.90;;;;;;5009665;28;20511;-79
2021/09/09 07:55:43;;;;;;;5.40;4.90;;;23.60;99.90;;;;;;5008279;28;20527;-78
2021/09/09 07:58:12;;;;;;;5.90;5.30;;;23.60;99.90;;;;;;5006666;28;20461;-77
2021/09/09 08:00:40;;;;;;;6.40;5.80;;;23.70;99.90;;;;;;5002850;28;20508;-78
2021/09/09 08:03:09;;;;;;;5.07;4.53;;;23.70;99.90;;;;;;5008627;28;20469;-78
2021/09/09 08:05:38;;;;;;;6.07;5.47;;;23.70;99.90;;;;;;5008080;28;20460;-78
2021/09/09 08:08:07;;;;;;;6.60;6.00;;;23.70;99.90;;;;;;5006787;28;20461;-79
2021/09/09 08:10:35;;;;;;;5.30;4.80;;;23.70;99.90;;;;;;5006586;28;20448;-79
2021/09/09 08:13:04;;;;;;;5.67;4.80;;;23.70;99.90;;;;;;4997950;28;20477;-79
2021/09/09 08:15:32;;;;;;;5.50;4.67;;;23.70;99.90;;;;;;5008688;28;20515;-78
2021/09/09 08:18:00;;;;;;;5.50;5.10;;;23.70;99.90;;;;;;5006686;28;20552;-79
2021/09/09 08:20:29;;;;;;;5.07;4.57;;;23.70;99.90;;;;;;5004828;28;20869;-79
2021/09/09 08:22:58;;;;;;;5.27;4.87;;;23.80;99.90;;;;;;5004567;28;20500;-79
2021/09/09 08:25:26;;;;;;;4.73;4.27;;;23.90;99.90;;;;;;5003802;28;20465;-77
2021/09/09 08:27:54;;;;;;;5.33;4.83;;;24.00;99.90;;;;;;5005883;28;20442;-78
2021/09/09 08:30:22;;;;;;;6.53;5.20;;;24.10;99.90;;;;;;5004397;28;20454;-78
2021/09/09 08:32:50;;;;;;;5.70;5.20;;;24.10;99.90;;;;;;5005435;28;20473;-77
2021/09/09 08:35:19;;;;;;;5.90;5.30;;;24.20;99.90;;;;;;5016976;28;20461;-79
2021/09/09 08:37:48;;;;;;;7.20;4.83;;;24.20;99.90;;;;;;5008780;28;20992;-78
2021/09/09 08:40:16;;;;;;;5.20;4.77;;;24.30;99.90;;;;;;5006017;28;20453;-78
2021/09/09 08:42:46;;;;;;;6.10;5.50;;;24.40;99.90;;;;;;5008407;28;20473;-78
2021/09/09 08:45:16;;;;;;;5.87;5.47;;;24.40;99.90;;;;;;5007093;28;20449;-78
2021/09/09 08:47:47;;;;;;;5.43;4.93;;;24.40;99.90;;;;;;5008813;28;20938;-78
2021/09/09 08:50:16;;;;;;;4.90;4.50;;;24.50;99.90;;;;;;5004160;28;20466;-78
2021/09/09 08:52:44;;;;;;;6.53;5.40;;;24.50;99.90;;;;;;5003324;28;20473;-78
2021/09/09 08:55:14;;;;;;;5.73;5.07;;;24.60;99.90;;;;;;5007142;28;20795;-80
2021/09/09 08:57:42;;;;;;;6.23;5.10;;;24.60;99.90;;;;;;4995592;28;20798;-79
2021/09/09 09:00:11;;;;;;;6.13;5.40;;;24.70;99.90;;;;;;4999040;28;20454;-80
2021/09/09 09:02:53;;;;;;;5.70;5.20;;;24.80;99.90;;;;;;4993714;28;20469;-78
2021/09/09 09:06:18;;;;;;;6.90;4.97;;;24.80;99.90;;;;;;5006618;28;20571;-78
2021/09/09 09:08:50;;;;;;;9.40;5.23;;;24.80;99.90;;;;;;5001348;28;20457;-78
2021/09/09 09:11:24;;;;;;;6.90;5.20;;;24.90;99.90;;;;;;5002347;28;20960;-79
2021/09/09 09:13:52;;;;;;;6.13;5.53;;;24.90;99.90;;;;;;5006337;28;20532;-78
2021/09/09 09:16:21;;;;;;;5.80;5.30;;;25.00;99.90;;;;;;5008825;28;20453;-79
2021/09/09 09:18:50;;;;;;;7.50;5.70;;;25.00;99.90;;;;;;5007822;28;20500;-77
2021/09/09 09:21:21;;;;;;;5.80;4.33;;;25.00;99.90;;;;;;5003869;28;20499;-78
2021/09/09 09:23:52;;;;;;;5.87;5.37;;;25.00;99.90;;;;;;5003746;28;20453;-80
2021/09/09 09:26:28;;;;;;;4.60;4.03;;;25.10;99.90;;;;;;5006252;28;20980;-79
2021/09/09 09:28:58;;;;;;;5.40;4.60;;;25.20;99.90;;;;;;5003049;28;20468;-79
2021/09/09 09:31:28;;;;;;;5.37;4.87;;;25.20;99.90;;;;;;5004410;28;21055;-78
2021/09/09 09:33:58;;;;;;;4.87;4.13;;;25.20;99.90;;;;;;5005135;28;20955;-77
2021/09/09 09:36:28;;;;;;;4.37;3.90;;;25.20;99.90;;;;;;4988597;28;20954;-79
2021/09/09 09:39:09;;;;;;;6.03;4.23;;;25.30;99.90;;;;;;4995492;28;20762;-79
2021/09/09 09:41:40;;;;;;;5.07;3.47;;;25.40;99.90;;;;;;5005088;28;20481;-78
2021/09/09 09:44:18;;;;;;;5.93;4.37;;;25.40;99.90;;;;;;5006891;28;20452;-78
2021/09/09 09:46:47;;;;;;;5.47;4.93;;;25.50;99.90;;;;;;5007622;28;20438;-79
2021/09/09 09:49:20;;;;;;;4.53;4.13;;;25.50;99.90;;;;;;5006646;28;20453;-79
2021/09/09 09:51:50;;;;;;;3.87;3.63;;;25.60;99.90;;;;;;5004234;28;20547;-79
2021/09/09 09:54:20;;;;;;;4.97;3.97;;;25.70;99.90;;;;;;5007260;28;20445;-79
2021/09/09 09:56:50;;;;;;;4.73;3.70;;;25.70;99.90;;;;;;5005375;28;20536;-78
2021/09/09 09:59:18;;;;;;;4.40;4.00;;;25.70;99.90;;;;;;5001849;28;20552;-79
2021/09/09 10:01:48;;;;;;;4.30;3.90;;;25.80;99.90;;;;;;5006862;28;20481;-79
2021/09/09 10:04:18;;;;;;;4.10;3.70;;;25.80;99.90;;;;;;5010553;28;20445;-79
2021/09/09 10:06:48;;;;;;;4.23;3.83;;;25.90;99.90;;;;;;5022107;28;20493;-78
2021/09/09 10:09:17;;;;;;;4.80;4.40;;;25.90;99.90;;;;;;5007876;28;20847;-79
2021/09/09 10:11:46;;;;;;;7.10;4.57;;;25.90;99.90;;;;;;5003357;28;20535;-79
2021/09/09 10:14:23;;;;;;;3.80;3.60;;;26.00;99.90;;;;;;5011670;28;20457;-80
2021/09/09 10:16:55;;;;;;;4.13;3.73;;;26.00;99.90;;;;;;5011019;28;20457;-79
2021/09/09 10:19:25;;;;;;;4.43;4.03;;;26.00;99.90;;;;;;5011826;28;20548;-79
2021/09/09 10:22:08;;;;;;;5.60;5.00;;;26.00;99.90;;;;;;5006742;28;20907;-79
2021/09/09 10:24:38;;;;;;;3.90;3.50;;;26.00;99.90;;;;;;5007483;28;20449;-79
2021/09/09 10:27:18;;;;;;;4.67;4.00;;;26.00;99.90;;;;;;5008374;28;20460;-79
2021/09/09 10:29:50;;;;;;;4.73;4.33;;;26.00;99.90;;;;;;5009073;28;20876;-80
2021/09/09 10:32:54;;;;;;;3.60;3.30;;;26.00;99.90;;;;;;5009150;28;20469;-79
2021/09/09 10:35:30;;;;;;;4.03;3.63;;;26.00;99.90;;;;;;5010275;28;20495;-79
2021/09/09 10:38:20;;;;;;;3.70;3.40;;;26.00;99.90;;;;;;5008452;28;20473;-80
2021/09/09 10:40:50;;;;;;;3.57;3.27;;;25.90;99.90;;;;;;5007148;28;20458;-79
2021/09/09 10:43:50;;;;;;;4.47;4.07;;;25.90;99.90;;;;;;5007879;28;20969;-79
2021/09/09 10:46:20;;;;;;;5.00;3.23;;;26.00;99.90;;;;;;5003845;28;20546;-77
2021/09/09 10:49:06;;;;;;;4.23;2.83;;;25.90;99.90;;;;;;5011527;28;20456;-77
2021/09/09 10:51:34;;;;;;;3.60;3.30;;;26.00;99.90;;;;;;5009648;28;20446;-79
2021/09/09 10:54:03;;;;;;;3.40;3.20;;;26.00;99.90;;;;;;5009695;28;20581;-80
2021/09/09 10:56:36;;;;;;;3.30;3.00;;;26.00;99.90;;;;;;5003680;28;20449;-78
2021/09/09 10:59:13;;;;;;;3.40;3.20;;;26.00;99.90;;;;;;5009911;28;20476;-78
2021/09/09 11:01:45;;;;;;;3.57;3.27;;;26.00;99.90;;;;;;5006399;28;20503;-77
2021/09/09 11:04:28;;;;;;;3.50;3.20;;;26.20;99.90;;;;;;5005592;28;21019;-79
2021/09/09 11:06:58;;;;;;;3.73;3.43;;;26.20;99.90;;;;;;4989334;28;21108;-78
2021/09/09 11:09:26;;;;;;;3.30;3.10;;;26.20;99.90;;;;;;5000165;28;20464;-78
2021/09/09 11:12:02;;;;;;;5.60;3.60;;;26.30;99.90;;;;;;5009186;28;20477;-79
2021/09/09 11:14:31;;;;;;;3.57;3.27;;;26.40;99.90;;;;;;5003965;28;20491;-80
2021/09/09 11:17:00;;;;;;;3.60;3.30;;;26.20;99.90;;;;;;5011032;28;20441;-79
2021/09/09 11:19:29;;;;;;;4.30;3.90;;;26.30;99.90;;;;;;5006011;28;20509;-79
2021/09/09 11:22:03;;;;;;;2.90;2.70;;;26.20;99.90;;;;;;5009405;28;20491;-79
2021/09/09 11:24:35;;;;;;;3.60;3.03;;;26.20;99.90;;;;;;5003393;28;20457;-78
2021/09/09 11:27:13;;;;;;;3.73;3.43;;;26.30;99.90;;;;;;5008198;28;20556;-79
2021/09/09 11:29:41;;;;;;;4.60;3.50;;;26.30;99.90;;;;;;5003868;28;20527;-78
2021/09/09 11:32:15;;;;;;;3.70;3.40;;;26.30;99.90;;;;;;4993803;28;21000;-77
2021/09/09 11:34:43;;;;;;;4.05;3.72;;;26.40;99.90;;;;;;5007102;28;20457;-79
2021/09/09 11:37:13;;;;;;;3.80;3.50;;;26.60;99.90;;;;;;5011063;28;20198;-80
2021/09/09 11:39:44;;;;;;;4.07;3.67;;;26.60;99.90;;;;;;4998217;28;20512;-79
2021/09/09 11:42:28;;;;;;;4.87;4.27;;;26.60;99.90;;;;;;5000328;28;20465;-79
2021/09/09 11:45:01;;;;;;;4.30;3.90;;;26.40;99.90;;;;;;5009807;28;20465;-78
2021/09/09 11:47:31;;;;;;;3.77;3.30;;;26.20;99.90;;;;;;5009170;28;20450;-79
2021/09/09 11:50:03;;;;;;;5.10;4.03;;;26.30;99.90;;;;;;5008198;28;20445;-78
2021/09/09 11:52:31;;;;;;;4.23;3.87;;;26.30;99.90;;;;;;5025675;28;20861;-79
2021/09/09 11:55:08;;;;;;;3.20;3.00;;;26.30;99.90;;;;;;5009108;28;20515;-79
2021/09/09 11:57:42;;;;;;;3.80;3.60;;;26.30;99.90;;;;;;5001473;28;20437;-77
2021/09/09 12:00:14;;;;;;;5.07;3.73;;;26.40;99.90;;;;;;5009028;28;20551;-79
2021/09/09 12:02:45;;;;;;;4.60;3.70;;;26.50;99.90;;;;;;5010096;28;20512;-79
2021/09/09 12:05:18;;;;;;;3.90;3.40;;;26.50;99.90;;;;;;5008573;28;20564;-80
2021/09/09 12:07:46;;;;;;;4.43;3.83;;;26.60;99.90;;;;;;4999356;28;20544;-77
2021/09/09 12:10:22;;;;;;;4.97;4.30;;;26.60;99.90;;;;;;5007214;28;20765;-79
2021/09/09 12:12:58;;;;;;;4.80;4.30;;;26.70;99.90;;;;;;5001618;28;20485;-78
2021/09/09 12:15:28;;;;;;;5.40;3.60;;;26.50;99.90;;;;;;5001905;28;20549;-79
2021/09/09 12:18:10;;;;;;;4.73;4.27;;;26.50;99.90;;;;;;5002394;28;20934;-79
2021/09/09 12:20:38;;;;;;;3.10;2.87;;;26.60;99.90;;;;;;5008765;28;20957;-79
2021/09/09 12:23:07;;;;;;;4.47;3.37;;;26.60;99.90;;;;;;5006953;28;20551;-80
2021/09/09 12:25:36;;;;;;;4.20;3.43;;;26.60;99.90;;;;;;5008250;28;20449;-79
2021/09/09 12:28:08;;;;;;;3.97;3.57;;;26.60;99.90;;;;;;5006987;28;21019;-78
2021/09/09 12:30:38;;;;;;;7.27;4.77;;;26.50;99.90;;;;;;5006441;28;20915;-75
2021/09/09 12:33:18;;;;;;;3.97;3.67;;;26.50;99.90;;;;;;5002251;28;20464;-79
2021/09/09 12:36:04;;;;;;;4.13;3.80;;;26.50;99.90;;;;;;5009154;28;20457;-79
2021/09/09 12:38:34;;;;;;;3.00;2.80;;;26.50;99.90;;;;;;4996885;28;20497;-75
2021/09/09 12:41:02;;;;;;;3.50;3.20;;;26.40;99.90;;;;;;5007071;28;20457;-79
2021/09/09 12:43:31;;;;;;;3.47;3.23;;;26.50;99.90;;;;;;4998777;28;20474;-79
2021/09/09 12:46:01;;;;;;;3.80;3.43;;;26.60;99.90;;;;;;5006507;28;20692;-80
2021/09/09 12:48:32;;;;;;;4.73;4.13;;;26.60;99.90;;;;;;5007619;28;21058;-79
2021/09/09 12:51:03;;;;;;;4.47;4.07;;;26.60;99.90;;;;;;5003281;28;21129;-78
2021/09/09 12:53:34;;;;;;;4.40;4.00;;;26.60;99.90;;;;;;5008034;28;20453;-78
2021/09/09 12:56:05;;;;;;;3.67;3.27;;;26.70;99.90;;;;;;5007980;28;21161;-80
2021/09/09 12:58:34;;;;;;;3.90;3.60;;;26.80;99.90;;;;;;5005421;28;20465;-79